createdAt,value
2018-05-27T00:01:46.557Z,53.50
2018-05-27T00:04:14.257Z,53.70
2018-05-27T00:06:42.787Z,53.70
2018-05-27T00:09:10.512Z,53.70
2018-05-27T00:11:38.228Z,53.70
2018-05-27T00:14:06.091Z,53.80
2018-05-27T00:16:33.785Z,54.10
2018-05-27T00:19:02.234Z,54.10
2018-05-27T00:21:30.028Z,54.10
2018-05-27T00:23:58.505Z,54.60
2018-05-27T00:26:26.965Z,54.60
2018-05-27T00:28:54.698Z,54.60
2018-05-27T00:31:23.205Z,55.70
2018-05-27T00:33:50.937Z,55.10
2018-05-27T00:36:18.642Z,55.50
2018-05-27T00:38:46.383Z,55.60
2018-05-27T00:41:14.123Z,56.40
2018-05-27T00:43:41.909Z,55.80
2018-05-27T00:46:09.611Z,56.00
2018-05-27T00:48:38.081Z,56.40
2018-05-27T00:51:06.589Z,56.70
2018-05-27T00:54:00.126Z,56.70
2018-05-27T00:56:28.662Z,56.70
2018-05-27T00:58:56.377Z,56.70
2018-05-27T01:01:24.995Z,57.00
2018-05-27T01:03:52.788Z,57.00
2018-05-27T01:06:20.549Z,57.00
2018-05-27T01:08:48.305Z,57.20
2018-05-27T01:11:16.039Z,57.80
2018-05-27T01:13:43.751Z,58.30
2018-05-27T01:16:11.502Z,58.80
2018-05-27T01:18:39.206Z,59.80
2018-05-27T01:21:07.717Z,60.20
2018-05-27T01:23:35.418Z,60.20
2018-05-27T01:26:03.193Z,60.70
2018-05-27T01:28:30.908Z,61.30
2018-05-27T01:30:58.731Z,60.70
2018-05-27T01:33:27.203Z,61.10
2018-05-27T01:35:55.678Z,61.50
2018-05-27T01:38:23.763Z,61.40
2018-05-27T01:40:52.244Z,62.60
2018-05-27T01:43:20.726Z,62.60
2018-05-27T01:45:49.244Z,62.70
2018-05-27T01:48:16.940Z,62.70
2018-05-27T01:50:44.654Z,63.80
2018-05-27T01:53:12.395Z,63.00
2018-05-27T01:55:40.968Z,62.50
2018-05-27T01:58:09.440Z,63.30
2018-05-27T02:00:37.923Z,63.80
2018-05-27T02:03:06.426Z,64.00
2018-05-27T02:05:34.127Z,64.00
2018-05-27T02:08:01.857Z,64.50
2018-05-27T02:10:29.601Z,63.60
2018-05-27T02:12:58.096Z,64.20
2018-05-27T02:15:25.803Z,64.00
2018-05-27T02:17:53.636Z,63.80
2018-05-27T02:20:21.336Z,64.30
2018-05-27T02:22:49.037Z,64.10
2018-05-27T02:25:17.547Z,64.20
2018-05-27T02:27:45.326Z,64.20
2018-05-27T02:30:13.031Z,64.20
2018-05-27T02:32:41.495Z,64.30
2018-05-27T02:35:09.237Z,64.20
2018-05-27T02:37:36.931Z,65.70
2018-05-27T02:40:05.790Z,65.60
2018-05-27T02:42:33.510Z,65.60
2018-05-27T02:45:01.232Z,66.00
2018-05-27T02:47:29.959Z,66.60
2018-05-27T02:49:57.665Z,66.60
2018-05-27T02:52:25.412Z,67.20
2018-05-27T02:54:53.130Z,66.50
2018-05-27T02:57:21.136Z,66.30
2018-05-27T02:59:48.848Z,66.30
2018-05-27T03:02:17.509Z,66.20
2018-05-27T03:04:45.248Z,66.20
2018-05-27T03:07:13.476Z,66.10
2018-05-27T03:09:41.978Z,66.20
2018-05-27T03:12:09.700Z,66.20
2018-05-27T03:14:37.551Z,66.20
2018-05-27T03:17:05.265Z,66.30
2018-05-27T03:19:32.975Z,66.60
2018-05-27T03:22:00.853Z,66.60
2018-05-27T03:24:28.555Z,66.80
2018-05-27T03:26:56.254Z,67.40
2018-05-27T03:29:24.005Z,67.30
2018-05-27T03:31:51.733Z,66.80
2018-05-27T03:34:20.217Z,66.30
2018-05-27T03:36:48.344Z,66.40
2018-05-27T03:39:16.051Z,66.30
2018-05-27T03:41:44.520Z,65.90
2018-05-27T03:44:13.078Z,65.90
2018-05-27T03:46:40.764Z,65.80
2018-05-27T03:49:09.264Z,66.00
2018-05-27T03:51:37.115Z,65.90
2018-05-27T03:54:05.597Z,67.00
2018-05-27T03:56:34.068Z,66.20
2018-05-27T03:59:02.673Z,66.20
2018-05-27T04:01:30.376Z,66.20
2018-05-27T04:04:09.939Z,66.20
2018-05-27T04:06:49.558Z,66.50
2018-05-27T04:09:17.287Z,67.10
2018-05-27T04:11:44.980Z,67.00
2018-05-27T04:14:13.655Z,65.00
2018-05-27T04:16:41.431Z,63.60
2018-05-27T04:19:09.221Z,62.90
2018-05-27T04:21:37.688Z,58.90
2018-05-27T04:24:05.426Z,58.80
2018-05-27T04:26:33.124Z,58.00
2018-05-27T04:29:01.681Z,55.80
2018-05-27T04:31:29.413Z,55.10
2018-05-27T04:33:57.141Z,54.20
2018-05-27T04:36:25.603Z,53.80
2018-05-27T04:38:53.344Z,53.10
2018-05-27T04:41:21.043Z,52.70
2018-05-27T04:43:49.568Z,51.10
2018-05-27T04:46:17.268Z,51.10
2018-05-27T04:48:44.975Z,50.80
2018-05-27T04:51:12.820Z,50.90
2018-05-27T04:53:41.361Z,51.30
2018-05-27T04:56:10.099Z,50.70
2018-05-27T04:58:37.836Z,50.60
2018-05-27T05:01:06.380Z,50.00
2018-05-27T05:03:34.125Z,49.90
2018-05-27T05:06:01.845Z,49.20
2018-05-27T05:08:30.457Z,48.00
2018-05-27T05:10:58.603Z,47.90
2018-05-27T05:13:27.104Z,45.70
2018-05-27T05:15:54.805Z,45.70
2018-05-27T05:18:22.554Z,45.00
2018-05-27T05:20:50.327Z,44.10
2018-05-27T05:23:18.029Z,43.90
2018-05-27T05:25:47.732Z,44.20
2018-05-27T05:28:15.496Z,44.10
2018-05-27T05:30:44.738Z,43.20
2018-05-27T05:33:12.485Z,43.10
2018-05-27T05:35:43.733Z,44.50
2018-05-27T05:38:12.427Z,45.30
2018-05-27T05:40:40.841Z,44.80
2018-05-27T05:43:10.248Z,45.70
2018-05-27T05:45:38.040Z,46.20
2018-05-27T05:48:07.081Z,47.20
2018-05-27T05:50:45.215Z,47.20
2018-05-27T05:53:14.099Z,47.50
2018-05-27T05:55:42.054Z,46.60
2018-05-27T05:58:09.889Z,46.50
2018-05-27T06:00:38.150Z,48.00
2018-05-27T06:03:07.858Z,48.30
2018-05-27T06:05:36.384Z,48.30
2018-05-27T06:08:04.241Z,48.40
2018-05-27T06:10:33.113Z,47.50
2018-05-27T06:13:03.343Z,47.50
2018-05-27T06:15:32.120Z,47.50
2018-05-27T06:18:00.985Z,46.30
2018-05-27T06:20:28.827Z,46.00
2018-05-27T06:22:58.730Z,46.20
2018-05-27T06:25:26.566Z,46.50
2018-05-27T06:27:54.311Z,46.60
2018-05-27T06:30:22.058Z,46.70
2018-05-27T06:32:50.539Z,46.50
2018-05-27T06:35:18.360Z,46.50
2018-05-27T06:37:46.292Z,46.30
2018-05-27T06:40:14.039Z,45.40
2018-05-27T06:42:42.110Z,44.80
2018-05-27T06:45:10.756Z,44.00
2018-05-27T06:47:38.756Z,44.00
2018-05-27T06:50:08.314Z,45.40
2018-05-27T06:52:36.115Z,45.40
2018-05-27T06:55:04.591Z,47.60
2018-05-27T06:57:33.502Z,47.80
2018-05-27T07:00:01.196Z,47.80
2018-05-27T07:02:28.890Z,47.20
2018-05-27T07:04:56.678Z,46.60
2018-05-27T07:07:24.492Z,46.00
2018-05-27T07:09:52.371Z,45.80
2018-05-27T07:12:21.151Z,45.00
2018-05-27T07:14:49.749Z,43.30
2018-05-27T07:17:17.452Z,43.20
2018-05-27T07:19:45.177Z,43.80
2018-05-27T07:22:13.375Z,44.90
2018-05-27T07:24:41.855Z,43.60
2018-05-27T07:27:10.299Z,44.80
2018-05-27T07:29:38.402Z,44.80
2018-05-27T07:32:06.864Z,47.40
2018-05-27T07:34:34.620Z,47.40
2018-05-27T07:37:02.459Z,46.00
2018-05-27T07:39:30.152Z,46.40
2018-05-27T07:41:57.870Z,46.30
2018-05-27T07:44:25.626Z,44.80
2018-05-27T07:46:53.329Z,46.20
2018-05-27T07:49:21.035Z,46.00
2018-05-27T07:51:49.537Z,47.10
2018-05-27T07:54:17.287Z,47.10
2018-05-27T07:56:44.990Z,46.40
2018-05-27T07:59:12.694Z,45.40
2018-05-27T08:01:41.195Z,43.50
2018-05-27T08:04:08.884Z,43.40
2018-05-27T08:06:36.716Z,45.60
2018-05-27T08:09:05.959Z,46.00
2018-05-27T08:11:33.658Z,46.00
2018-05-27T08:14:01.389Z,45.90
2018-05-27T08:16:29.091Z,46.00
2018-05-27T08:18:56.913Z,46.00
2018-05-27T08:21:24.627Z,46.10
2018-05-27T08:23:53.106Z,45.90
2018-05-27T08:26:21.619Z,45.90
2018-05-27T08:28:49.315Z,45.80
2018-05-27T08:31:17.052Z,46.10
2018-05-27T08:33:44.761Z,46.40
2018-05-27T08:36:12.528Z,45.40
2018-05-27T08:38:40.236Z,45.30
2018-05-27T08:41:07.930Z,46.00
2018-05-27T08:43:35.793Z,45.90
2018-05-27T08:46:03.499Z,45.80
2018-05-27T08:48:31.966Z,45.90
2018-05-27T08:50:59.693Z,45.90
2018-05-27T08:53:27.557Z,45.80
2018-05-27T08:55:55.228Z,45.80
2018-05-27T08:58:22.999Z,46.50
2018-05-27T09:00:50.695Z,47.00
2018-05-27T09:03:18.402Z,47.00
2018-05-27T09:05:46.144Z,49.20
2018-05-27T09:08:14.641Z,47.50
2018-05-27T09:10:42.794Z,47.30
2018-05-27T09:13:10.545Z,46.30
2018-05-27T09:15:38.239Z,44.80
2018-05-27T09:18:06.047Z,45.90
2018-05-27T09:20:33.745Z,44.90
2018-05-27T09:23:02.213Z,45.90
2018-05-27T09:25:29.960Z,45.80
2018-05-27T09:27:57.911Z,45.50
2018-05-27T09:30:25.612Z,46.40
2018-05-27T09:32:53.460Z,45.80
2018-05-27T09:35:21.938Z,45.20
2018-05-27T09:37:49.641Z,45.30
2018-05-27T09:40:19.991Z,46.30
2018-05-27T09:42:49.408Z,46.30
2018-05-27T09:45:17.204Z,45.30
2018-05-27T09:47:45.316Z,45.50
2018-05-27T09:50:13.778Z,45.50
2018-05-27T09:52:42.304Z,45.60
2018-05-27T09:55:10.029Z,45.60
2018-05-27T09:57:38.565Z,44.70
2018-05-27T10:00:06.266Z,44.80
2018-05-27T10:02:33.963Z,44.90
2018-05-27T10:05:01.732Z,43.70
2018-05-27T10:07:29.438Z,43.60
2018-05-27T10:09:57.144Z,44.70
2018-05-27T10:12:25.655Z,43.60
2018-05-27T10:14:53.362Z,43.50
2018-05-27T10:17:21.105Z,43.60
2018-05-27T10:19:48.845Z,43.10
2018-05-27T10:22:16.588Z,43.10
2018-05-27T10:24:44.341Z,43.30
2018-05-27T10:27:12.878Z,43.50
2018-05-27T10:29:40.568Z,43.50
2018-05-27T10:32:09.049Z,42.50
2018-05-27T10:34:37.600Z,43.10
2018-05-27T10:37:05.340Z,43.10
2018-05-27T10:39:33.047Z,43.00
2018-05-27T10:42:00.894Z,43.60
2018-05-27T10:44:28.613Z,42.90
2018-05-27T10:46:56.320Z,44.60
2018-05-27T10:49:24.062Z,43.20
2018-05-27T10:51:51.783Z,43.50
2018-05-27T10:54:20.280Z,42.70
2018-05-27T10:56:47.971Z,42.80
2018-05-27T10:59:15.830Z,44.10
2018-05-27T11:01:43.532Z,41.90
2018-05-27T11:04:11.229Z,43.60
2018-05-27T11:06:39.740Z,42.10
2018-05-27T11:09:07.556Z,42.00
2018-05-27T11:11:35.400Z,42.20
2018-05-27T11:14:03.128Z,41.90
2018-05-27T11:16:30.829Z,41.90
2018-05-27T11:18:58.581Z,42.00
2018-05-27T11:21:26.292Z,40.40
2018-05-27T11:23:54.021Z,40.70
2018-05-27T11:26:21.739Z,41.00
2018-05-27T11:28:49.474Z,40.90
2018-05-27T11:31:17.951Z,40.60
2018-05-27T11:33:46.941Z,40.70
2018-05-27T11:36:15.494Z,39.60
2018-05-27T11:38:43.207Z,39.50
2018-05-27T11:41:11.083Z,40.90
2018-05-27T11:43:38.831Z,38.80
2018-05-27T11:46:06.542Z,39.10
2018-05-27T11:48:34.380Z,38.60
2018-05-27T11:51:02.109Z,37.90
2018-05-27T11:53:29.848Z,37.30
2018-05-27T11:55:57.583Z,36.50
2018-05-27T11:58:25.282Z,37.90
2018-05-27T12:00:53.129Z,37.60
2018-05-27T12:03:20.842Z,37.40
2018-05-27T12:05:48.538Z,36.10
2018-05-27T12:08:16.273Z,35.50
2018-05-27T12:10:43.979Z,35.60
2018-05-27T12:13:11.724Z,35.50
2018-05-27T12:15:39.422Z,34.60
2018-05-27T12:18:07.199Z,34.20
2018-05-27T12:20:35.684Z,37.00
2018-05-27T12:23:04.158Z,38.20
2018-05-27T12:25:32.682Z,39.30
2018-05-27T12:28:00.404Z,39.20
2018-05-27T12:30:29.017Z,38.60
2018-05-27T12:32:56.739Z,38.60
2018-05-27T12:35:25.231Z,38.50
2018-05-27T12:37:53.764Z,38.00
2018-05-27T12:40:21.479Z,37.90
2018-05-27T12:42:49.245Z,36.50
2018-05-27T12:45:17.105Z,37.40
2018-05-27T12:47:45.581Z,36.70
2018-05-27T12:50:13.298Z,36.70
2018-05-27T12:52:41.048Z,36.80
2018-05-27T12:55:09.173Z,36.20
2018-05-27T12:57:37.666Z,35.40
2018-05-27T13:00:06.191Z,37.40
2018-05-27T13:02:33.984Z,37.40
2018-05-27T13:05:01.700Z,37.70
2018-05-27T13:07:29.430Z,37.70
2018-05-27T13:09:57.935Z,36.30
2018-05-27T13:12:25.787Z,36.30
2018-05-27T13:14:53.494Z,35.50
2018-05-27T13:17:21.212Z,36.60
2018-05-27T13:19:48.993Z,34.10
2018-05-27T13:22:16.691Z,36.30
2018-05-27T13:24:44.397Z,36.10
2018-05-27T13:27:12.905Z,36.00
2018-05-27T13:29:40.627Z,36.00
2018-05-27T13:32:09.151Z,35.00
2018-05-27T13:34:36.855Z,34.90
2018-05-27T13:37:05.045Z,34.50
2018-05-27T13:39:33.515Z,37.50
2018-05-27T13:42:01.990Z,37.60
2018-05-27T13:44:29.728Z,37.60
2018-05-27T13:46:57.475Z,37.50
2018-05-27T13:49:25.319Z,38.10
2018-05-27T13:51:53.022Z,37.00
2018-05-27T13:54:20.722Z,37.00
2018-05-27T13:56:49.225Z,38.80
2018-05-27T13:59:16.963Z,38.80
2018-05-27T14:01:45.440Z,40.30
2018-05-27T14:04:13.950Z,39.50
2018-05-27T14:06:41.802Z,39.40
2018-05-27T14:09:09.616Z,38.80
2018-05-27T14:11:37.324Z,39.00
2018-05-27T14:14:05.119Z,38.90
2018-05-27T14:16:32.859Z,38.00
2018-05-27T14:19:00.569Z,38.60
2018-05-27T14:21:28.350Z,38.30
2018-05-27T14:23:56.077Z,38.40
2018-05-27T14:26:23.797Z,37.90
2018-05-27T14:28:52.298Z,39.30
2018-05-27T14:31:20.043Z,39.30
2018-05-27T14:33:47.745Z,44.00
2018-05-27T14:36:15.483Z,45.40
2018-05-27T14:38:43.191Z,43.00
2018-05-27T14:41:10.943Z,44.00
2018-05-27T14:43:38.663Z,44.60
2018-05-27T14:46:06.530Z,45.10
2018-05-27T14:48:34.235Z,46.20
2018-05-27T14:51:01.938Z,44.60
2018-05-27T14:53:30.553Z,47.50
2018-05-27T14:55:58.248Z,47.50
2018-05-27T14:58:26.710Z,47.20
2018-05-27T15:00:54.924Z,47.10
2018-05-27T15:03:23.471Z,50.20
2018-05-27T15:05:51.188Z,50.20
2018-05-27T15:08:18.890Z,54.80
2018-05-27T15:10:46.642Z,57.00
2018-05-27T15:13:14.352Z,58.60
2018-05-27T15:15:42.872Z,59.50
2018-05-27T15:18:10.576Z,59.50
2018-05-27T15:20:38.283Z,60.70
2018-05-27T15:23:06.039Z,62.20
2018-05-27T15:25:34.523Z,61.10
2018-05-27T15:28:02.268Z,61.10
2018-05-27T15:30:30.737Z,63.00
2018-05-27T15:32:58.479Z,63.00
2018-05-27T15:35:26.207Z,64.50
2018-05-27T15:37:53.956Z,67.70
2018-05-27T15:40:21.653Z,67.70
2018-05-27T15:42:49.419Z,68.30
2018-05-27T15:45:17.103Z,68.10
2018-05-27T15:47:44.815Z,64.50
2018-05-27T15:50:12.661Z,66.20
2018-05-27T15:52:40.379Z,69.20
2018-05-27T15:55:08.094Z,74.40
2018-05-27T15:57:35.844Z,72.90
2018-05-27T16:00:04.411Z,74.00
2018-05-27T16:02:32.932Z,73.60
2018-05-27T16:05:00.678Z,73.50
2018-05-27T16:07:29.149Z,73.20
2018-05-27T16:09:57.681Z,71.60
2018-05-27T16:12:25.422Z,71.60
2018-05-27T16:14:53.167Z,71.70
2018-05-27T16:17:23.444Z,70.70
2018-05-27T16:19:52.173Z,74.30
2018-05-27T16:22:20.747Z,74.30
2018-05-27T16:24:49.276Z,79.00
2018-05-27T16:27:18.731Z,79.10
2018-05-27T16:29:49.804Z,78.60
2018-05-27T16:32:17.852Z,78.60
2018-05-27T16:34:46.964Z,77.70
2018-05-27T16:37:15.375Z,73.70
2018-05-27T16:39:44.399Z,69.40
2018-05-27T16:42:16.641Z,75.80
2018-05-27T16:44:44.510Z,75.80
2018-05-27T16:47:12.627Z,77.20
2018-05-27T16:49:40.442Z,76.60
2018-05-27T16:52:09.929Z,74.50
2018-05-27T16:54:41.683Z,71.10
2018-05-27T16:57:09.511Z,70.50
2018-05-27T16:59:48.112Z,70.20
2018-05-27T17:02:18.861Z,70.10
2018-05-27T17:04:47.092Z,68.00
2018-05-27T17:07:15.930Z,64.00
2018-05-27T17:09:46.590Z,64.00
2018-05-27T17:12:19.879Z,65.60
2018-05-27T17:14:51.341Z,65.60
2018-05-27T17:17:20.291Z,64.80
2018-05-27T17:19:48.964Z,66.80
2018-05-27T17:22:17.964Z,67.80
2018-05-27T17:24:51.426Z,67.70
2018-05-27T17:27:24.228Z,67.00
2018-05-27T17:29:53.417Z,65.00
2018-05-27T17:32:21.275Z,64.90
2018-05-27T17:34:48.987Z,62.90
2018-05-27T17:37:17.138Z,64.30
2018-05-27T17:39:45.612Z,62.50
2018-05-27T17:42:14.094Z,60.60
2018-05-27T17:44:42.724Z,60.20
2018-05-27T17:47:10.452Z,60.20
2018-05-27T17:49:38.207Z,59.80
2018-05-27T17:52:06.717Z,62.00
2018-05-27T17:54:34.599Z,62.00
2018-05-27T17:57:02.299Z,62.70
2018-05-27T17:59:30.004Z,63.90
2018-05-27T18:01:57.749Z,64.90
2018-05-27T18:04:25.477Z,64.20
2018-05-27T18:06:53.676Z,64.90
2018-05-27T18:09:21.420Z,64.00
2018-05-27T18:11:49.111Z,64.50
2018-05-27T18:14:17.269Z,63.80
2018-05-27T18:16:45.761Z,63.40
2018-05-27T18:19:14.343Z,63.50
2018-05-27T18:21:43.238Z,63.90
2018-05-27T18:24:10.949Z,63.80
2018-05-27T18:26:38.909Z,63.10
2018-05-27T18:29:11.137Z,62.80
2018-05-27T18:31:43.059Z,62.80
2018-05-27T18:34:12.860Z,64.70
2018-05-27T18:36:42.551Z,64.00
2018-05-27T18:39:10.336Z,62.70
2018-05-27T18:41:38.104Z,63.50
2018-05-27T18:44:05.850Z,63.30
2018-05-27T18:46:33.551Z,63.60
2018-05-27T18:49:02.110Z,64.20
2018-05-27T18:51:29.867Z,64.10
2018-05-27T18:53:57.604Z,64.30
2018-05-27T18:56:25.327Z,63.50
2018-05-27T18:58:54.203Z,63.90
2018-05-27T19:01:22.675Z,64.40
2018-05-27T19:03:50.413Z,64.40
2018-05-27T19:06:19.434Z,64.70
2018-05-27T19:08:47.948Z,64.70
2018-05-27T19:11:15.651Z,64.60
2018-05-27T19:13:44.831Z,65.30
2018-05-27T19:16:33.053Z,68.10
2018-05-27T19:19:12.826Z,68.00
2018-05-27T19:24:50.324Z,71.20
2018-05-27T19:30:34.530Z,70.70
2018-05-27T19:36:11.414Z,70.40
2018-05-27T19:38:56.873Z,71.40
2018-05-27T19:41:26.803Z,71.40
2018-05-27T19:43:55.080Z,71.90
2018-05-27T19:46:23.495Z,72.30
2018-05-27T19:48:51.423Z,72.50
2018-05-27T19:51:19.415Z,72.60
2018-05-27T19:53:47.503Z,73.50
2018-05-27T19:56:16.925Z,73.30
2018-05-27T19:58:46.881Z,73.30
2018-05-27T20:01:16.665Z,73.80
2018-05-27T20:03:45.690Z,74.10
2018-05-27T20:06:14.990Z,72.00
2018-05-27T20:08:48.936Z,71.90
2018-05-27T20:11:16.900Z,70.70
2018-05-27T20:13:45.372Z,69.20
2018-05-27T20:16:14.029Z,69.10
2018-05-27T20:18:41.871Z,69.00
2018-05-27T20:21:10.769Z,68.60
2018-05-27T20:23:39.590Z,69.20
2018-05-27T20:26:07.361Z,67.10
2018-05-27T20:28:35.200Z,67.50
2018-05-27T20:31:02.959Z,67.40
2018-05-27T20:33:30.829Z,66.90
2018-05-27T20:35:59.090Z,66.50
2018-05-27T20:38:26.832Z,65.20
2018-05-27T20:40:54.672Z,64.50
2018-05-27T20:43:22.398Z,63.70
2018-05-27T20:45:50.134Z,63.20
2018-05-27T20:48:17.932Z,63.40
2018-05-27T20:50:45.678Z,62.50
2018-05-27T20:53:13.506Z,63.00
2018-05-27T20:55:41.269Z,62.50
2018-05-27T20:58:11.524Z,62.30
2018-05-27T21:00:40.974Z,62.80
2018-05-27T21:03:08.908Z,63.10
2018-05-27T21:05:38.062Z,63.10
2018-05-27T21:08:05.793Z,63.10
2018-05-27T21:10:36.396Z,63.80
2018-05-27T21:13:04.710Z,63.80
2018-05-27T21:15:33.195Z,64.40
2018-05-27T21:18:01.578Z,64.30
2018-05-27T21:20:29.953Z,64.60
2018-05-27T21:22:58.848Z,64.80
2018-05-27T21:25:26.695Z,65.20
2018-05-27T21:27:56.097Z,65.10
2018-05-27T21:30:25.917Z,65.60
2018-05-27T21:32:54.706Z,64.90
2018-05-27T21:35:23.312Z,65.00
2018-05-27T21:37:51.251Z,66.00
2018-05-27T21:40:19.768Z,68.60
2018-05-27T21:42:47.523Z,68.60
2018-05-27T21:45:15.292Z,68.50
2018-05-27T21:47:43.394Z,68.10
2018-05-27T21:50:11.102Z,69.00
2018-05-27T21:52:38.848Z,69.70
2018-05-27T21:55:07.340Z,70.70
2018-05-27T21:57:35.425Z,70.50
2018-05-27T22:00:03.316Z,70.60
2018-05-27T22:02:31.109Z,71.20
2018-05-27T22:04:58.861Z,68.10
2018-05-27T22:07:26.578Z,70.30
2018-05-27T22:09:54.455Z,69.90
2018-05-27T22:12:22.190Z,71.00
2018-05-27T22:14:50.713Z,71.40
2018-05-27T22:17:18.613Z,71.40
2018-05-27T22:19:46.505Z,71.20
2018-05-27T22:22:15.009Z,73.50
2018-05-27T22:24:42.740Z,73.50
2018-05-27T22:27:11.743Z,76.40
2018-05-27T22:29:40.239Z,77.00
2018-05-27T22:32:07.956Z,76.90
2018-05-27T22:34:35.716Z,76.00
2018-05-27T22:37:03.431Z,75.60
2018-05-27T22:39:31.328Z,74.70
2018-05-27T22:41:59.055Z,74.20
2018-05-27T22:44:26.763Z,74.00
2018-05-27T22:46:54.615Z,74.70
2018-05-27T22:49:22.324Z,75.50
2018-05-27T22:51:50.050Z,75.80
2018-05-27T22:54:18.219Z,75.70
2018-05-27T22:56:45.931Z,77.20
2018-05-27T22:59:13.640Z,76.40
2018-05-27T23:01:41.741Z,76.70
2018-05-27T23:04:10.276Z,77.00
2018-05-27T23:06:38.000Z,76.90
2018-05-27T23:09:06.501Z,77.40
2018-05-27T23:11:34.274Z,77.40
2018-05-27T23:14:02.001Z,77.20
2018-05-27T23:16:30.541Z,77.40
2018-05-27T23:18:58.260Z,77.40
2018-05-27T23:21:25.967Z,77.40
2018-05-27T23:23:53.725Z,77.20
2018-05-27T23:26:21.437Z,77.20
2018-05-27T23:28:49.405Z,77.70
2018-05-27T23:31:17.899Z,77.90
2018-05-27T23:33:45.620Z,78.00
2018-05-27T23:36:13.381Z,78.20
2018-05-27T23:38:41.476Z,78.20
2018-05-27T23:41:09.941Z,78.20
2018-05-27T23:43:37.665Z,78.30
2018-05-27T23:46:05.408Z,78.60
2018-05-27T23:48:33.162Z,78.90
2018-05-27T23:51:01.028Z,78.50
2018-05-27T23:53:28.749Z,78.60
2018-05-27T23:55:56.503Z,78.60
2018-05-27T23:58:24.248Z,79.00
